Terminal Aerodrome Forecast
Issued by NWS

Home | Current Version | Previous Version | Text Only | Print | Product List | Glossary On
Versions: 1 2 3 4 5 6 7 8 9 10 11 12 13
303
FTUS44 KTSA 211725
TAFMLC
TAF
KMLC 211725Z 2118/2218 18011G19KT P6SM SCT020 BKN050
     FM220300 17015KT P6SM VCTS BKN025CB
     FM220400 VRB14G24KT 3SM TSRA BKN025CB
      TEMPO 2204/2206 VRB25G40KT 1SM +TSRA BKN015CB
     FM220600 33014KT 5SM -TSRA BKN025CB
     FM220900 34011KT P6SM BKN120=

USA.gov is the U.S. government's official web portal to all federal, state and local government web resources and services.